createdAt,value
2019-04-28T00:01:49.148Z,97.69
2019-04-28T00:04:16.192Z,97.99
2019-04-28T00:06:49.373Z,97.35
2019-04-28T00:09:19.148Z,97.04
2019-04-28T00:11:46.118Z,97.35
2019-04-28T00:14:19.465Z,98.04
2019-04-28T00:20:35.915Z,96.90
2019-04-28T00:23:12.854Z,97.41
2019-04-28T00:25:44.052Z,97.09
2019-04-28T00:28:12.199Z,97.19
2019-04-28T00:30:39.160Z,97.01
2019-04-28T00:33:06.140Z,96.94
2019-04-28T00:35:35.251Z,97.51
2019-04-28T00:38:01.968Z,98.18
2019-04-28T00:40:31.662Z,98.87
2019-04-28T00:46:41.067Z,98.02
2019-04-28T00:49:08.134Z,97.73
2019-04-28T00:51:35.067Z,97.31
2019-04-28T00:54:02.037Z,97.61
2019-04-28T00:56:28.977Z,97.28
2019-04-28T00:58:55.898Z,97.62
2019-04-28T01:01:33.070Z,97.91
2019-04-28T01:04:02.215Z,98.12
2019-04-28T01:06:29.108Z,98.56
2019-04-28T01:08:56.100Z,99.27
2019-04-28T01:11:23.123Z,99.43
2019-04-28T01:13:51.790Z,99.80
2019-04-28T01:16:25.570Z,100.00
2019-04-28T01:19:04.478Z,100.00
2019-04-28T01:22:10.279Z,100.00
2019-04-28T01:24:39.752Z,100.00
2019-04-28T01:27:10.889Z,100.00
2019-04-28T01:29:37.893Z,100.00
2019-04-28T01:32:25.039Z,100.00
2019-04-28T01:34:51.999Z,100.00
2019-04-28T01:37:19.642Z,100.00
2019-04-28T01:39:46.713Z,100.00
2019-04-28T01:42:13.675Z,100.00
2019-04-28T01:45:23.622Z,100.00
2019-04-28T01:47:50.599Z,100.00
2019-04-28T01:50:17.528Z,100.00
2019-04-28T01:52:46.265Z,100.00
2019-04-28T01:55:13.243Z,100.00
2019-04-28T01:57:40.254Z,100.00
2019-04-28T02:00:25.436Z,100.00
2019-04-28T02:02:51.530Z,100.00
2019-04-28T02:05:19.691Z,100.00
2019-04-28T02:07:46.849Z,100.00
2019-04-28T02:10:13.871Z,100.00
2019-04-28T02:12:40.790Z,100.00
2019-04-28T02:15:10.047Z,100.00
2019-04-28T02:17:40.005Z,100.00
2019-04-28T02:20:07.143Z,100.00
2019-04-28T02:22:53.741Z,100.00
2019-04-28T02:25:21.403Z,100.00
2019-04-28T02:27:49.942Z,100.00
2019-04-28T02:30:17.029Z,100.00
2019-04-28T02:32:43.958Z,100.00
2019-04-28T02:35:11.036Z,100.00
2019-04-28T02:37:40.831Z,100.00
2019-04-28T02:40:10.688Z,100.00
2019-04-28T02:42:45.039Z,100.00
2019-04-28T02:45:17.409Z,100.00
2019-04-28T02:47:44.355Z,100.00
2019-04-28T02:50:36.112Z,100.00
2019-04-28T02:53:15.636Z,100.00
2019-04-28T02:55:42.614Z,100.00
2019-04-28T02:58:13.416Z,100.00
2019-04-28T03:00:41.202Z,100.00
2019-04-28T03:03:11.040Z,100.00
2019-04-28T03:06:01.144Z,100.00
2019-04-28T03:08:27.571Z,100.00
2019-04-28T03:10:54.481Z,100.00
2019-04-28T03:13:21.405Z,100.00
2019-04-28T03:15:51.258Z,100.00
2019-04-28T03:18:17.253Z,100.00
2019-04-28T03:20:44.170Z,100.00
2019-04-28T03:23:12.379Z,100.00
2019-04-28T03:26:01.729Z,100.00
2019-04-28T03:28:51.519Z,100.00
2019-04-28T03:31:50.877Z,100.00
2019-04-28T03:33:56.323Z,100.00
2019-04-28T03:36:24.542Z,100.00
2019-04-28T03:38:53.193Z,100.00
2019-04-28T03:41:21.164Z,100.00
2019-04-28T03:43:51.290Z,100.00
2019-04-28T03:46:22.814Z,100.00
2019-04-28T03:48:50.865Z,100.00
2019-04-28T03:51:20.944Z,100.00
2019-04-28T03:53:47.136Z,100.00
2019-04-28T03:56:20.897Z,100.00
2019-04-28T03:58:50.278Z,100.00
2019-04-28T04:01:20.753Z,100.00
2019-04-28T04:03:47.694Z,100.00
2019-04-28T04:06:42.415Z,100.00
2019-04-28T04:09:11.234Z,100.00
2019-04-28T04:11:43.312Z,100.00
2019-04-28T04:14:21.004Z,100.00
2019-04-28T04:16:52.399Z,100.00
2019-04-28T04:19:20.345Z,100.00
2019-04-28T04:21:50.559Z,100.00
2019-04-28T04:24:16.373Z,100.00
2019-04-28T04:26:43.299Z,100.00
2019-04-28T04:29:10.341Z,100.00
2019-04-28T04:32:33.852Z,100.00
2019-04-28T04:35:02.993Z,100.00
2019-04-28T04:37:30.801Z,100.00
2019-04-28T04:39:57.927Z,100.00
2019-04-28T04:42:25.016Z,100.00
2019-04-28T04:44:51.971Z,100.00
2019-04-28T04:47:21.062Z,100.00
2019-04-28T04:49:50.331Z,100.00
2019-04-28T04:52:20.329Z,100.00
2019-04-28T04:54:47.046Z,100.00
2019-04-28T04:57:32.723Z,100.00
2019-04-28T05:00:01.156Z,100.00
2019-04-28T05:03:00.788Z,100.00
2019-04-28T05:05:34.450Z,100.00
2019-04-28T05:08:01.418Z,100.00
2019-04-28T05:10:30.317Z,100.00
2019-04-28T05:12:57.290Z,100.00
2019-04-28T05:15:24.284Z,100.00
2019-04-28T05:18:10.116Z,100.00
2019-04-28T05:20:37.435Z,100.00
2019-04-28T05:23:33.187Z,100.00
2019-04-28T05:26:01.548Z,100.00
2019-04-28T05:28:32.317Z,100.00
2019-04-28T05:30:59.980Z,100.00
2019-04-28T05:33:30.741Z,100.00
2019-04-28T05:36:01.055Z,100.00
2019-04-28T05:38:25.247Z,100.00
2019-04-28T05:41:33.205Z,100.00
2019-04-28T05:44:00.139Z,100.00
2019-04-28T05:46:27.072Z,100.00
2019-04-28T05:49:25.525Z,100.00
2019-04-28T05:51:54.709Z,100.00
2019-04-28T05:54:40.361Z,100.00
2019-04-28T05:57:23.671Z,100.00
2019-04-28T06:00:03.343Z,100.00
2019-04-28T06:02:36.715Z,100.00
2019-04-28T06:05:04.038Z,100.00
2019-04-28T06:07:49.409Z,100.00
2019-04-28T06:10:16.571Z,100.00
2019-04-28T06:12:43.574Z,100.00
2019-04-28T06:15:11.994Z,100.00
2019-04-28T06:17:39.757Z,100.00
2019-04-28T06:20:07.014Z,100.00
2019-04-28T06:22:33.990Z,100.00
2019-04-28T06:25:00.930Z,100.00
2019-04-28T06:27:32.564Z,100.00
2019-04-28T06:29:58.571Z,100.00
2019-04-28T06:32:25.529Z,100.00
2019-04-28T06:34:53.696Z,100.00
2019-04-28T06:37:20.646Z,100.00
2019-04-28T06:39:47.626Z,100.00
2019-04-28T06:42:14.604Z,100.00
2019-04-28T06:44:41.580Z,100.00
2019-04-28T06:47:08.652Z,100.00
2019-04-28T06:49:35.681Z,100.00
2019-04-28T06:52:02.621Z,100.00
2019-04-28T06:54:29.575Z,100.00
2019-04-28T06:56:56.545Z,100.00
2019-04-28T06:59:23.475Z,100.00
2019-04-28T07:01:50.479Z,100.00
2019-04-28T07:04:17.542Z,100.00
2019-04-28T07:06:44.602Z,100.00
2019-04-28T07:09:11.669Z,100.00
2019-04-28T07:11:38.717Z,100.00
2019-04-28T07:14:05.655Z,100.00
2019-04-28T07:16:32.629Z,100.00
2019-04-28T07:18:59.683Z,100.00
2019-04-28T07:21:38.083Z,100.00
2019-04-28T07:24:05.037Z,100.00
2019-04-28T07:26:36.832Z,100.00
2019-04-28T07:29:03.821Z,100.00
2019-04-28T07:31:32.638Z,100.00
2019-04-28T07:33:59.721Z,100.00
2019-04-28T07:36:26.727Z,100.00
2019-04-28T07:38:53.854Z,100.00
2019-04-28T07:41:20.819Z,100.00
2019-04-28T07:43:47.832Z,100.00
2019-04-28T07:46:14.790Z,100.00
2019-04-28T07:48:41.851Z,100.00
2019-04-28T07:51:10.148Z,100.00
2019-04-28T07:53:47.609Z,100.00
2019-04-28T07:56:14.562Z,98.72
2019-04-28T07:58:41.577Z,98.80
2019-04-28T08:01:11.247Z,98.81
2019-04-28T08:03:48.744Z,97.97
2019-04-28T08:06:07.166Z,98.77
2019-04-28T08:08:34.326Z,97.26
2019-04-28T08:11:01.308Z,96.55
2019-04-28T08:13:28.291Z,96.61
2019-04-28T08:15:56.410Z,97.33
2019-04-28T08:18:23.449Z,96.90
2019-04-28T08:20:50.398Z,97.39
2019-04-28T08:23:17.394Z,97.79
2019-04-28T08:25:44.475Z,98.49
2019-04-28T08:28:11.451Z,97.63
2019-04-28T08:30:38.428Z,97.60
2019-04-28T08:33:25.324Z,97.78
2019-04-28T08:35:52.325Z,97.71
2019-04-28T08:38:19.343Z,96.63
2019-04-28T08:40:46.412Z,96.31
2019-04-28T08:43:13.368Z,95.46
2019-04-28T08:45:40.344Z,95.02
2019-04-28T08:48:07.291Z,94.58
2019-04-28T08:50:34.685Z,93.37
2019-04-28T08:53:01.830Z,93.75
2019-04-28T08:55:28.776Z,94.09
2019-04-28T08:57:55.846Z,92.22
2019-04-28T09:00:23.261Z,92.86
2019-04-28T09:02:50.351Z,92.95
2019-04-28T09:05:19.439Z,91.43
2019-04-28T09:07:46.504Z,91.71
2019-04-28T09:10:13.570Z,90.79
2019-04-28T09:12:40.585Z,89.69
2019-04-28T09:15:08.064Z,89.76
2019-04-28T09:17:35.134Z,88.93
2019-04-28T09:20:02.105Z,88.85
2019-04-28T09:22:29.107Z,88.89
2019-04-28T09:24:56.183Z,88.46
2019-04-28T09:27:32.978Z,89.63
2019-04-28T09:29:59.967Z,88.46
2019-04-28T09:32:26.944Z,89.64
2019-04-28T09:35:13.475Z,89.74
2019-04-28T09:37:40.460Z,88.56
2019-04-28T09:40:11.672Z,88.39
2019-04-28T09:42:49.317Z,89.20
2019-04-28T09:45:22.273Z,89.36
2019-04-28T09:47:49.241Z,89.76
2019-04-28T09:50:16.175Z,89.63
2019-04-28T09:52:43.403Z,88.81
2019-04-28T09:55:10.663Z,89.48
2019-04-28T09:57:37.639Z,89.31
2019-04-28T10:00:33.744Z,88.75
2019-04-28T10:03:00.704Z,88.22
2019-04-28T10:05:27.661Z,87.90
2019-04-28T10:07:54.697Z,86.89
2019-04-28T10:10:21.641Z,86.77
2019-04-28T10:13:06.844Z,87.22
2019-04-28T10:15:33.804Z,86.07
2019-04-28T10:18:00.781Z,86.37
2019-04-28T10:20:29.572Z,86.94
2019-04-28T10:22:56.513Z,87.47
2019-04-28T10:25:23.503Z,87.24
2019-04-28T10:27:50.484Z,86.52
2019-04-28T10:30:17.649Z,87.51
2019-04-28T10:32:44.628Z,88.09
2019-04-28T10:35:11.767Z,88.45
2019-04-28T10:37:40.531Z,88.62
2019-04-28T10:40:21.471Z,89.25
2019-04-28T10:42:48.491Z,89.19
2019-04-28T10:45:19.530Z,88.84
2019-04-28T10:47:46.942Z,88.51
2019-04-28T10:50:14.050Z,89.36
2019-04-28T10:52:41.146Z,89.81
2019-04-28T10:55:08.768Z,89.91
2019-04-28T10:57:35.718Z,89.97
2019-04-28T11:00:03.687Z,89.23
2019-04-28T11:02:30.702Z,89.27
2019-04-28T11:05:11.969Z,90.34
2019-04-28T11:07:40.260Z,90.52
2019-04-28T11:10:11.958Z,89.71
2019-04-28T11:12:38.917Z,90.35
2019-04-28T11:15:09.095Z,88.93
2019-04-28T11:17:40.447Z,88.92
2019-04-28T11:20:07.597Z,88.21
2019-04-28T11:22:34.677Z,87.29
2019-04-28T11:25:01.611Z,87.21
2019-04-28T11:27:28.790Z,87.50
2019-04-28T11:29:55.803Z,87.37
2019-04-28T11:32:22.842Z,88.15
2019-04-28T11:34:59.281Z,88.45
2019-04-28T11:37:26.280Z,89.01
2019-04-28T11:39:53.393Z,88.19
2019-04-28T11:44:57.882Z,89.44
2019-04-28T11:47:25.158Z,89.69
2019-04-28T11:49:52.142Z,87.40
2019-04-28T11:52:19.102Z,86.07
2019-04-28T11:54:46.048Z,85.45
2019-04-28T11:57:13.051Z,84.43
2019-04-28T11:59:40.551Z,84.30
2019-04-28T12:02:07.822Z,83.56
2019-04-28T12:04:34.768Z,83.78
2019-04-28T12:07:01.751Z,83.82
2019-04-28T12:09:46.611Z,83.13
2019-04-28T12:12:35.830Z,82.11
2019-04-28T12:15:25.374Z,82.61
2019-04-28T12:18:27.084Z,81.67
2019-04-28T12:20:54.063Z,81.95
2019-04-28T12:23:21.062Z,82.89
2019-04-28T12:25:47.983Z,83.02
2019-04-28T12:28:14.984Z,82.78
2019-04-28T12:30:41.961Z,83.58
2019-04-28T12:33:09.002Z,84.61
2019-04-28T12:35:47.047Z,85.29
2019-04-28T12:38:04.941Z,85.53
2019-04-28T12:40:31.865Z,86.63
2019-04-28T12:42:59.924Z,88.34
2019-04-28T12:45:34.774Z,90.09
2019-04-28T12:47:55.919Z,90.20
2019-04-28T12:50:28.207Z,88.51
2019-04-28T12:52:55.165Z,86.50
2019-04-28T12:55:22.149Z,85.39
2019-04-28T12:57:49.189Z,86.24
2019-04-28T13:00:45.202Z,85.26
2019-04-28T13:03:34.513Z,84.68
2019-04-28T13:06:05.883Z,82.73
2019-04-28T13:08:33.183Z,82.55
2019-04-28T13:11:00.122Z,80.62
2019-04-28T13:13:27.252Z,79.53
2019-04-28T13:15:54.195Z,80.21
2019-04-28T13:18:21.277Z,79.69
2019-04-28T13:20:48.312Z,79.09
2019-04-28T13:23:15.507Z,78.29
2019-04-28T13:25:42.721Z,78.11
2019-04-28T13:28:09.685Z,78.41
2019-04-28T13:30:36.668Z,77.87
2019-04-28T13:33:03.624Z,75.98
2019-04-28T13:35:30.895Z,72.52
2019-04-28T13:37:57.857Z,69.72
2019-04-28T13:40:29.691Z,67.74
2019-04-28T13:42:56.654Z,66.83
2019-04-28T13:45:24.312Z,67.38
2019-04-28T13:47:51.262Z,64.63
2019-04-28T13:50:48.977Z,66.46
2019-04-28T13:53:16.331Z,68.22
2019-04-28T13:56:00.934Z,70.40
2019-04-28T13:58:37.176Z,67.84
2019-04-28T14:01:14.834Z,70.07
2019-04-28T14:04:24.270Z,73.33
2019-04-28T14:06:55.356Z,72.47
2019-04-28T14:09:22.426Z,73.08
2019-04-28T14:11:49.627Z,71.30
2019-04-28T14:14:16.628Z,73.15
2019-04-28T14:16:43.671Z,73.55
2019-04-28T14:19:10.601Z,71.66
2019-04-28T14:21:37.597Z,71.17
2019-04-28T14:24:04.542Z,72.51
2019-04-28T14:26:31.584Z,72.74
2019-04-28T14:28:58.537Z,72.69
2019-04-28T14:31:25.472Z,72.99
2019-04-28T14:33:52.405Z,73.39
2019-04-28T14:36:19.518Z,74.80
2019-04-28T14:38:46.429Z,74.64
2019-04-28T14:41:13.449Z,74.73
2019-04-28T14:43:40.398Z,74.56
2019-04-28T14:46:12.650Z,74.56
2019-04-28T14:48:39.586Z,74.45
2019-04-28T14:51:06.670Z,74.33
2019-04-28T14:53:33.678Z,73.17
2019-04-28T14:56:00.649Z,72.70
2019-04-28T14:58:27.965Z,72.24
2019-04-28T15:01:00.308Z,72.49
2019-04-28T15:03:28.474Z,70.74
2019-04-28T15:06:30.233Z,69.42
2019-04-28T15:09:07.621Z,69.41
2019-04-28T15:11:47.317Z,69.91
2019-04-28T15:14:17.525Z,71.33
2019-04-28T15:16:44.501Z,70.77
2019-04-28T15:19:11.455Z,71.96
2019-04-28T15:21:38.503Z,72.86
2019-04-28T15:24:05.551Z,72.98
2019-04-28T15:26:32.517Z,72.21
2019-04-28T15:28:59.501Z,72.12
2019-04-28T15:31:26.521Z,73.32
2019-04-28T15:33:53.592Z,72.72
2019-04-28T15:36:20.548Z,71.43
2019-04-28T15:38:47.551Z,71.05
2019-04-28T15:41:21.551Z,71.18
2019-04-28T15:43:43.364Z,70.14
2019-04-28T15:46:10.391Z,70.50
2019-04-28T15:48:37.704Z,70.90
2019-04-28T15:51:04.810Z,71.80
2019-04-28T15:53:34.113Z,72.22
2019-04-28T15:56:08.455Z,72.72
2019-04-28T15:58:36.468Z,72.62
2019-04-28T16:01:03.727Z,73.39
2019-04-28T16:03:30.674Z,72.88
2019-04-28T16:05:59.890Z,72.59
2019-04-28T16:08:26.505Z,72.19
2019-04-28T16:10:53.429Z,72.39
2019-04-28T16:13:23.355Z,73.11
2019-04-28T16:15:50.289Z,73.76
2019-04-28T16:18:17.217Z,74.04
2019-04-28T16:20:44.341Z,74.06
2019-04-28T16:23:11.296Z,73.50
2019-04-28T16:25:38.218Z,74.52
2019-04-28T16:28:05.208Z,75.31
2019-04-28T16:30:32.269Z,76.12
2019-04-28T16:32:59.212Z,76.71
2019-04-28T16:35:26.263Z,76.92
2019-04-28T16:37:53.158Z,76.80
2019-04-28T16:40:20.200Z,77.27
2019-04-28T16:42:51.822Z,78.35
2019-04-28T16:45:19.434Z,79.06
2019-04-28T16:47:46.414Z,78.81
2019-04-28T16:50:13.456Z,78.24
2019-04-28T16:52:40.417Z,77.15
2019-04-28T16:55:14.865Z,76.60
2019-04-28T16:58:07.394Z,76.19
2019-04-28T17:00:52.575Z,75.13
2019-04-28T17:03:19.666Z,75.06
2019-04-28T17:05:46.652Z,75.45
2019-04-28T17:08:13.604Z,75.41
2019-04-28T17:10:40.571Z,75.45
2019-04-28T17:13:07.502Z,76.72
2019-04-28T17:15:36.094Z,77.56
2019-04-28T17:18:03.080Z,78.11
2019-04-28T17:20:30.058Z,79.06
2019-04-28T17:22:57.005Z,80.02
2019-04-28T17:25:24.917Z,81.04
2019-04-28T17:27:51.860Z,81.27
2019-04-28T17:30:19.605Z,82.24
2019-04-28T17:32:46.625Z,83.34
2019-04-28T17:35:13.776Z,84.18
2019-04-28T17:37:40.742Z,84.84
2019-04-28T17:40:07.839Z,85.12
2019-04-28T17:42:34.896Z,85.90
2019-04-28T17:45:01.945Z,86.75
2019-04-28T17:47:28.983Z,87.81
2019-04-28T17:49:55.935Z,88.36
2019-04-28T17:52:23.187Z,88.65
2019-04-28T17:54:50.165Z,90.42
2019-04-28T17:57:17.244Z,90.47
2019-04-28T17:59:47.887Z,91.10
2019-04-28T18:02:47.445Z,91.73
2019-04-28T18:05:25.219Z,92.08
2019-04-28T18:07:56.618Z,92.55
2019-04-28T18:10:24.558Z,93.40
2019-04-28T18:13:00.342Z,94.26
2019-04-28T18:15:38.638Z,94.85
2019-04-28T18:18:15.073Z,95.96
2019-04-28T18:20:43.244Z,97.56
2019-04-28T18:23:10.206Z,98.86
2019-04-28T18:25:37.227Z,99.92
2019-04-28T18:28:04.211Z,100.00
2019-04-28T18:30:33.951Z,100.00
2019-04-28T18:33:30.716Z,100.00
2019-04-28T18:36:06.210Z,100.00
2019-04-28T18:38:40.112Z,100.00
2019-04-28T18:41:26.878Z,100.00
2019-04-28T18:44:07.361Z,100.00
2019-04-28T18:46:34.361Z,100.00
2019-04-28T18:49:01.321Z,100.00
2019-04-28T18:51:30.135Z,100.00
2019-04-28T18:53:57.096Z,100.00
2019-04-28T18:56:24.106Z,100.00
2019-04-28T18:58:51.058Z,100.00
2019-04-28T19:01:28.587Z,100.00
2019-04-28T19:03:55.581Z,100.00
2019-04-28T19:06:22.541Z,100.00
2019-04-28T19:09:01.145Z,100.00
2019-04-28T19:11:42.610Z,100.00
2019-04-28T19:14:15.513Z,100.00
2019-04-28T19:17:05.087Z,100.00
2019-04-28T19:19:33.262Z,100.00
2019-04-28T19:22:00.263Z,100.00
2019-04-28T19:24:27.836Z,100.00
2019-04-28T19:26:54.848Z,100.00
2019-04-28T19:29:21.911Z,100.00
2019-04-28T19:31:48.906Z,100.00
2019-04-28T19:34:15.890Z,100.00
2019-04-28T19:36:42.892Z,100.00
2019-04-28T19:39:11.827Z,100.00
2019-04-28T19:41:59.234Z,100.00
2019-04-28T19:44:26.313Z,100.00
2019-04-28T19:46:55.135Z,100.00
2019-04-28T19:49:22.966Z,100.00
2019-04-28T19:51:51.036Z,100.00
2019-04-28T19:54:19.924Z,100.00
2019-04-28T19:56:53.906Z,100.00
2019-04-28T19:59:27.951Z,100.00
2019-04-28T20:02:34.418Z,100.00
2019-04-28T20:05:01.465Z,100.00
2019-04-28T20:07:28.605Z,100.00
2019-04-28T20:09:56.026Z,100.00
2019-04-28T20:12:23.060Z,100.00
2019-04-28T20:14:50.202Z,100.00
2019-04-28T20:17:17.500Z,100.00
2019-04-28T20:19:44.459Z,100.00
2019-04-28T20:22:11.536Z,100.00
2019-04-28T20:24:46.946Z,100.00
2019-04-28T20:27:07.558Z,100.00
2019-04-28T20:29:36.537Z,100.00
2019-04-28T20:32:03.696Z,100.00
2019-04-28T20:34:30.688Z,100.00
2019-04-28T20:37:13.321Z,100.00
2019-04-28T20:39:40.471Z,100.00
2019-04-28T20:42:26.321Z,100.00
2019-04-28T20:44:53.500Z,100.00
2019-04-28T20:47:20.521Z,100.00
2019-04-28T20:49:47.548Z,100.00
2019-04-28T20:52:14.535Z,100.00
2019-04-28T20:54:59.744Z,100.00
2019-04-28T20:57:26.700Z,100.00
2019-04-28T20:59:53.668Z,100.00
2019-04-28T21:02:20.770Z,100.00
2019-04-28T21:04:48.919Z,100.00
2019-04-28T21:07:16.970Z,100.00
2019-04-28T21:09:45.872Z,100.00
2019-04-28T21:12:12.857Z,100.00
2019-04-28T21:14:39.984Z,100.00
2019-04-28T21:17:06.994Z,100.00
2019-04-28T21:19:34.033Z,100.00
2019-04-28T21:22:01.182Z,100.00
2019-04-28T21:24:28.332Z,100.00
2019-04-28T21:26:55.411Z,100.00
2019-04-28T21:29:22.392Z,100.00
2019-04-28T21:31:49.360Z,100.00
2019-04-28T21:34:16.343Z,100.00
2019-04-28T21:36:45.114Z,100.00
2019-04-28T21:39:12.212Z,100.00
2019-04-28T21:41:39.150Z,100.00
2019-04-28T21:44:25.779Z,100.00
2019-04-28T21:46:58.032Z,100.00
2019-04-28T21:49:29.435Z,100.00
2019-04-28T21:51:56.389Z,100.00
2019-04-28T21:54:23.628Z,100.00
2019-04-28T21:56:50.743Z,100.00
2019-04-28T21:59:17.831Z,100.00
2019-04-28T22:01:44.788Z,100.00
2019-04-28T22:04:13.618Z,100.00
2019-04-28T22:06:40.568Z,100.00
2019-04-28T22:09:07.736Z,100.00
2019-04-28T22:11:34.886Z,100.00
2019-04-28T22:14:28.574Z,100.00
2019-04-28T22:16:55.675Z,100.00
2019-04-28T22:19:22.634Z,100.00
2019-04-28T22:21:49.685Z,100.00
2019-04-28T22:24:25.262Z,100.00
2019-04-28T22:27:27.484Z,100.00
2019-04-28T22:29:54.491Z,100.00
2019-04-28T22:32:21.468Z,100.00
2019-04-28T22:34:48.407Z,100.00
2019-04-28T22:37:18.497Z,100.00
2019-04-28T22:39:47.090Z,100.00
2019-04-28T22:42:14.237Z,100.00
2019-04-28T22:44:41.260Z,100.00
2019-04-28T22:47:08.375Z,100.00
2019-04-28T22:49:35.334Z,100.00
2019-04-28T22:52:02.346Z,100.00
2019-04-28T22:54:42.102Z,100.00
2019-04-28T22:57:28.141Z,100.00
2019-04-28T22:59:55.517Z,100.00
2019-04-28T23:02:22.815Z,100.00
2019-04-28T23:04:56.632Z,100.00
2019-04-28T23:07:23.719Z,100.00
2019-04-28T23:09:50.696Z,100.00
2019-04-28T23:12:17.681Z,100.00
2019-04-28T23:14:49.171Z,100.00
2019-04-28T23:17:19.363Z,100.00
2019-04-28T23:19:46.373Z,100.00
2019-04-28T23:22:46.984Z,100.00
2019-04-28T23:25:12.392Z,100.00
2019-04-28T23:27:39.450Z,100.00
2019-04-28T23:30:07.348Z,100.00
2019-04-28T23:32:34.319Z,100.00
2019-04-28T23:35:01.379Z,100.00
2019-04-28T23:37:28.353Z,100.00
2019-04-28T23:39:55.417Z,100.00
2019-04-28T23:42:53.691Z,100.00
2019-04-28T23:45:27.052Z,100.00
2019-04-28T23:47:54.174Z,100.00
2019-04-28T23:50:28.480Z,100.00
2019-04-28T23:53:10.455Z,100.00
2019-04-28T23:55:37.439Z,100.00
2019-04-28T23:58:04.504Z,100.00
